sensor_id;sensor_type;location;lat;lon;timestamp;P1;durP1;ratioP1;P2;durP2;ratioP2
9072;SDS011;4572;41.642;25.370;2023-06-26T00:01:45;4.80;;;3.17;;
9072;SDS011;4572;41.642;25.370;2023-06-26T00:04:11;3.42;;;2.80;;
9072;SDS011;4572;41.642;25.370;2023-06-26T00:06:39;4.13;;;3.22;;
9072;SDS011;4572;41.642;25.370;2023-06-26T00:09:05;4.72;;;3.40;;
9072;SDS011;4572;41.642;25.370;2023-06-26T00:11:31;4.82;;;3.13;;
9072;SDS011;4572;41.642;25.370;2023-06-26T00:13:58;5.20;;;3.00;;
9072;SDS011;4572;41.642;25.370;2023-06-26T00:16:25;4.50;;;3.33;;
9072;SDS011;4572;41.642;25.370;2023-06-26T00:18:52;3.08;;;2.20;;
9072;SDS011;4572;41.642;25.370;2023-06-26T00:21:17;3.55;;;2.60;;
9072;SDS011;4572;41.642;25.370;2023-06-26T00:23:44;4.70;;;2.95;;
9072;SDS011;4572;41.642;25.370;2023-06-26T00:26:11;4.25;;;2.72;;
9072;SDS011;4572;41.642;25.370;2023-06-26T00:28:37;4.38;;;2.88;;
9072;SDS011;4572;41.642;25.370;2023-06-26T00:31:02;3.83;;;2.80;;
9072;SDS011;4572;41.642;25.370;2023-06-26T00:33:27;10.43;;;2.92;;
9072;SDS011;4572;41.642;25.370;2023-06-26T00:35:53;3.17;;;2.88;;
9072;SDS011;4572;41.642;25.370;2023-06-26T00:38:18;3.30;;;2.50;;
9072;SDS011;4572;41.642;25.370;2023-06-26T00:40:44;3.00;;;2.40;;
9072;SDS011;4572;41.642;25.370;2023-06-26T00:43:09;4.03;;;2.92;;
9072;SDS011;4572;41.642;25.370;2023-06-26T00:45:35;3.22;;;2.60;;
9072;SDS011;4572;41.642;25.370;2023-06-26T00:48:01;4.75;;;2.70;;
9072;SDS011;4572;41.642;25.370;2023-06-26T00:50:27;3.55;;;2.30;;
9072;SDS011;4572;41.642;25.370;2023-06-26T00:52:53;4.82;;;2.70;;
9072;SDS011;4572;41.642;25.370;2023-06-26T00:55:19;2.88;;;2.50;;
9072;SDS011;4572;41.642;25.370;2023-06-26T00:57:45;4.00;;;2.85;;
9072;SDS011;4572;41.642;25.370;2023-06-26T01:00:11;4.72;;;2.47;;
9072;SDS011;4572;41.642;25.370;2023-06-26T01:02:38;4.40;;;2.97;;
9072;SDS011;4572;41.642;25.370;2023-06-26T01:05:04;3.90;;;2.78;;
9072;SDS011;4572;41.642;25.370;2023-06-26T01:07:32;4.32;;;3.00;;
9072;SDS011;4572;41.642;25.370;2023-06-26T01:10:04;4.78;;;2.97;;
9072;SDS011;4572;41.642;25.370;2023-06-26T01:12:31;5.22;;;2.85;;
9072;SDS011;4572;41.642;25.370;2023-06-26T01:14:58;3.28;;;2.53;;
9072;SDS011;4572;41.642;25.370;2023-06-26T01:17:24;3.40;;;3.00;;
9072;SDS011;4572;41.642;25.370;2023-06-26T01:19:50;3.25;;;2.75;;
9072;SDS011;4572;41.642;25.370;2023-06-26T01:22:23;2.70;;;2.42;;
9072;SDS011;4572;41.642;25.370;2023-06-26T01:24:56;3.90;;;2.88;;
9072;SDS011;4572;41.642;25.370;2023-06-26T01:27:29;2.72;;;2.17;;
9072;SDS011;4572;41.642;25.370;2023-06-26T01:29:57;3.92;;;2.72;;
9072;SDS011;4572;41.642;25.370;2023-06-26T01:32:25;3.17;;;2.67;;
9072;SDS011;4572;41.642;25.370;2023-06-26T01:34:51;6.15;;;3.20;;
9072;SDS011;4572;41.642;25.370;2023-06-26T01:37:17;6.38;;;2.75;;
9072;SDS011;4572;41.642;25.370;2023-06-26T01:39:42;2.65;;;2.42;;
9072;SDS011;4572;41.642;25.370;2023-06-26T01:42:08;4.65;;;2.72;;
9072;SDS011;4572;41.642;25.370;2023-06-26T01:44:34;5.82;;;2.67;;
9072;SDS011;4572;41.642;25.370;2023-06-26T01:49:38;5.63;;;3.40;;
9072;SDS011;4572;41.642;25.370;2023-06-26T01:52:52;3.58;;;2.45;;
9072;SDS011;4572;41.642;25.370;2023-06-26T01:57:58;3.35;;;2.80;;
9072;SDS011;4572;41.642;25.370;2023-06-26T02:00:24;4.93;;;2.38;;
9072;SDS011;4572;41.642;25.370;2023-06-26T02:02:50;3.95;;;3.30;;
9072;SDS011;4572;41.642;25.370;2023-06-26T02:05:15;4.18;;;2.80;;
9072;SDS011;4572;41.642;25.370;2023-06-26T02:07:41;4.38;;;2.83;;
9072;SDS011;4572;41.642;25.370;2023-06-26T02:10:06;3.05;;;2.75;;
9072;SDS011;4572;41.642;25.370;2023-06-26T02:12:32;3.55;;;2.20;;
9072;SDS011;4572;41.642;25.370;2023-06-26T02:14:58;3.90;;;3.03;;
9072;SDS011;4572;41.642;25.370;2023-06-26T02:17:24;3.65;;;2.55;;
9072;SDS011;4572;41.642;25.370;2023-06-26T02:19:49;4.07;;;2.90;;
9072;SDS011;4572;41.642;25.370;2023-06-26T02:22:15;4.18;;;2.92;;
9072;SDS011;4572;41.642;25.370;2023-06-26T02:24:41;4.18;;;3.00;;
9072;SDS011;4572;41.642;25.370;2023-06-26T02:27:08;4.28;;;3.25;;
9072;SDS011;4572;41.642;25.370;2023-06-26T02:29:34;5.13;;;2.92;;
9072;SDS011;4572;41.642;25.370;2023-06-26T02:31:59;3.90;;;3.40;;
9072;SDS011;4572;41.642;25.370;2023-06-26T02:34:25;3.13;;;2.85;;
9072;SDS011;4572;41.642;25.370;2023-06-26T02:36:51;3.65;;;3.28;;
9072;SDS011;4572;41.642;25.370;2023-06-26T02:39:19;5.80;;;3.10;;
9072;SDS011;4572;41.642;25.370;2023-06-26T02:41:45;4.78;;;3.00;;
9072;SDS011;4572;41.642;25.370;2023-06-26T02:44:12;3.45;;;3.08;;
9072;SDS011;4572;41.642;25.370;2023-06-26T02:46:37;3.92;;;3.03;;
9072;SDS011;4572;41.642;25.370;2023-06-26T02:49:03;4.30;;;3.35;;
9072;SDS011;4572;41.642;25.370;2023-06-26T02:51:29;4.40;;;3.40;;
9072;SDS011;4572;41.642;25.370;2023-06-26T02:53:56;4.88;;;3.08;;
9072;SDS011;4572;41.642;25.370;2023-06-26T02:56:21;4.93;;;3.45;;
9072;SDS011;4572;41.642;25.370;2023-06-26T02:58:47;4.38;;;3.15;;
9072;SDS011;4572;41.642;25.370;2023-06-26T03:01:12;5.78;;;3.00;;
9072;SDS011;4572;41.642;25.370;2023-06-26T03:03:40;4.78;;;2.42;;
9072;SDS011;4572;41.642;25.370;2023-06-26T03:06:06;3.95;;;3.55;;
9072;SDS011;4572;41.642;25.370;2023-06-26T03:08:33;5.47;;;4.00;;
9072;SDS011;4572;41.642;25.370;2023-06-26T03:11:01;5.28;;;3.58;;
9072;SDS011;4572;41.642;25.370;2023-06-26T03:13:26;4.90;;;3.17;;
9072;SDS011;4572;41.642;25.370;2023-06-26T03:15:53;4.43;;;3.53;;
9072;SDS011;4572;41.642;25.370;2023-06-26T03:18:18;4.35;;;3.20;;
9072;SDS011;4572;41.642;25.370;2023-06-26T03:20:44;5.45;;;3.97;;
9072;SDS011;4572;41.642;25.370;2023-06-26T03:23:10;7.20;;;3.97;;
9072;SDS011;4572;41.642;25.370;2023-06-26T03:25:35;5.30;;;3.75;;
9072;SDS011;4572;41.642;25.370;2023-06-26T03:28:00;4.47;;;3.70;;
9072;SDS011;4572;41.642;25.370;2023-06-26T03:30:26;5.32;;;3.42;;
9072;SDS011;4572;41.642;25.370;2023-06-26T03:32:51;4.32;;;3.88;;
9072;SDS011;4572;41.642;25.370;2023-06-26T03:35:17;6.03;;;3.40;;
9072;SDS011;4572;41.642;25.370;2023-06-26T03:37:43;5.72;;;4.20;;
9072;SDS011;4572;41.642;25.370;2023-06-26T03:40:09;4.80;;;4.30;;
9072;SDS011;4572;41.642;25.370;2023-06-26T03:42:34;6.80;;;4.60;;
9072;SDS011;4572;41.642;25.370;2023-06-26T03:45:00;6.63;;;4.43;;
9072;SDS011;4572;41.642;25.370;2023-06-26T03:47:25;5.03;;;3.92;;
9072;SDS011;4572;41.642;25.370;2023-06-26T03:49:51;4.75;;;3.97;;
9072;SDS011;4572;41.642;25.370;2023-06-26T03:52:16;7.70;;;4.43;;
9072;SDS011;4572;41.642;25.370;2023-06-26T03:54:42;8.23;;;4.10;;
9072;SDS011;4572;41.642;25.370;2023-06-26T03:57:07;8.90;;;4.50;;
9072;SDS011;4572;41.642;25.370;2023-06-26T03:59:33;5.50;;;4.38;;
9072;SDS011;4572;41.642;25.370;2023-06-26T04:01:58;6.72;;;4.72;;
9072;SDS011;4572;41.642;25.370;2023-06-26T04:04:24;8.63;;;4.95;;
9072;SDS011;4572;41.642;25.370;2023-06-26T04:06:49;8.15;;;4.45;;
9072;SDS011;4572;41.642;25.370;2023-06-26T04:09:15;4.35;;;3.95;;
9072;SDS011;4572;41.642;25.370;2023-06-26T04:11:42;7.53;;;4.25;;
9072;SDS011;4572;41.642;25.370;2023-06-26T04:14:07;9.27;;;7.03;;
9072;SDS011;4572;41.642;25.370;2023-06-26T04:16:33;6.95;;;5.18;;
9072;SDS011;4572;41.642;25.370;2023-06-26T04:18:58;7.05;;;5.07;;
9072;SDS011;4572;41.642;25.370;2023-06-26T04:21:24;7.28;;;4.72;;
9072;SDS011;4572;41.642;25.370;2023-06-26T04:23:50;7.90;;;4.78;;
9072;SDS011;4572;41.642;25.370;2023-06-26T04:26:15;6.13;;;4.53;;
9072;SDS011;4572;41.642;25.370;2023-06-26T04:28:41;6.00;;;4.32;;
9072;SDS011;4572;41.642;25.370;2023-06-26T04:31:07;7.50;;;5.05;;
9072;SDS011;4572;41.642;25.370;2023-06-26T04:33:34;7.97;;;5.15;;
9072;SDS011;4572;41.642;25.370;2023-06-26T04:36:01;10.75;;;5.68;;
9072;SDS011;4572;41.642;25.370;2023-06-26T04:38:28;6.80;;;5.40;;
9072;SDS011;4572;41.642;25.370;2023-06-26T04:40:54;7.03;;;5.50;;
9072;SDS011;4572;41.642;25.370;2023-06-26T04:43:20;7.85;;;5.47;;
9072;SDS011;4572;41.642;25.370;2023-06-26T04:45:45;7.57;;;5.65;;
9072;SDS011;4572;41.642;25.370;2023-06-26T04:48:11;9.57;;;5.05;;
9072;SDS011;4572;41.642;25.370;2023-06-26T04:50:36;7.10;;;6.40;;
9072;SDS011;4572;41.642;25.370;2023-06-26T04:53:02;8.13;;;6.60;;
9072;SDS011;4572;41.642;25.370;2023-06-26T04:55:27;8.80;;;6.18;;
9072;SDS011;4572;41.642;25.370;2023-06-26T04:57:53;11.43;;;6.25;;
9072;SDS011;4572;41.642;25.370;2023-06-26T05:00:19;6.78;;;5.50;;
9072;SDS011;4572;41.642;25.370;2023-06-26T05:02:45;8.98;;;5.82;;
9072;SDS011;4572;41.642;25.370;2023-06-26T05:05:10;6.35;;;5.35;;
9072;SDS011;4572;41.642;25.370;2023-06-26T05:07:36;7.57;;;6.00;;
9072;SDS011;4572;41.642;25.370;2023-06-26T05:10:02;7.20;;;5.72;;
9072;SDS011;4572;41.642;25.370;2023-06-26T05:12:28;8.35;;;6.80;;
9072;SDS011;4572;41.642;25.370;2023-06-26T05:14:54;7.30;;;5.80;;
9072;SDS011;4572;41.642;25.370;2023-06-26T05:17:19;11.02;;;6.43;;
9072;SDS011;4572;41.642;25.370;2023-06-26T05:19:45;8.45;;;5.78;;
9072;SDS011;4572;41.642;25.370;2023-06-26T05:22:12;8.32;;;5.95;;
9072;SDS011;4572;41.642;25.370;2023-06-26T05:24:38;9.07;;;6.43;;
9072;SDS011;4572;41.642;25.370;2023-06-26T05:27:04;9.73;;;6.72;;
9072;SDS011;4572;41.642;25.370;2023-06-26T05:29:31;12.93;;;9.23;;
9072;SDS011;4572;41.642;25.370;2023-06-26T05:31:57;9.88;;;7.47;;
9072;SDS011;4572;41.642;25.370;2023-06-26T05:34:24;9.30;;;7.30;;
9072;SDS011;4572;41.642;25.370;2023-06-26T05:36:51;9.60;;;7.45;;
9072;SDS011;4572;41.642;25.370;2023-06-26T05:39:17;10.05;;;7.90;;
9072;SDS011;4572;41.642;25.370;2023-06-26T05:41:45;9.80;;;7.20;;
9072;SDS011;4572;41.642;25.370;2023-06-26T05:44:11;10.75;;;7.53;;
9072;SDS011;4572;41.642;25.370;2023-06-26T05:46:37;11.38;;;6.88;;
9072;SDS011;4572;41.642;25.370;2023-06-26T05:49:03;8.20;;;6.70;;
9072;SDS011;4572;41.642;25.370;2023-06-26T05:51:28;8.65;;;7.18;;
9072;SDS011;4572;41.642;25.370;2023-06-26T05:53:54;7.45;;;6.22;;
9072;SDS011;4572;41.642;25.370;2023-06-26T05:56:20;9.13;;;6.80;;
9072;SDS011;4572;41.642;25.370;2023-06-26T05:58:46;8.50;;;6.38;;
9072;SDS011;4572;41.642;25.370;2023-06-26T06:01:11;8.27;;;6.45;;
9072;SDS011;4572;41.642;25.370;2023-06-26T06:03:38;9.30;;;6.47;;
9072;SDS011;4572;41.642;25.370;2023-06-26T06:06:04;10.52;;;7.13;;
9072;SDS011;4572;41.642;25.370;2023-06-26T06:08:29;9.07;;;6.20;;
9072;SDS011;4572;41.642;25.370;2023-06-26T06:10:55;7.60;;;6.40;;
9072;SDS011;4572;41.642;25.370;2023-06-26T06:13:20;11.77;;;6.07;;
9072;SDS011;4572;41.642;25.370;2023-06-26T06:15:46;9.95;;;6.82;;
9072;SDS011;4572;41.642;25.370;2023-06-26T06:18:11;12.40;;;8.40;;
9072;SDS011;4572;41.642;25.370;2023-06-26T06:20:37;13.57;;;10.60;;
9072;SDS011;4572;41.642;25.370;2023-06-26T06:23:02;7.43;;;6.13;;
9072;SDS011;4572;41.642;25.370;2023-06-26T06:25:27;8.98;;;5.35;;
9072;SDS011;4572;41.642;25.370;2023-06-26T06:27:53;6.85;;;5.72;;
9072;SDS011;4572;41.642;25.370;2023-06-26T06:30:18;6.38;;;5.07;;
9072;SDS011;4572;41.642;25.370;2023-06-26T06:32:44;6.97;;;4.95;;
9072;SDS011;4572;41.642;25.370;2023-06-26T06:35:11;7.13;;;4.65;;
9072;SDS011;4572;41.642;25.370;2023-06-26T06:37:37;5.43;;;4.57;;
9072;SDS011;4572;41.642;25.370;2023-06-26T06:40:03;7.72;;;5.20;;
9072;SDS011;4572;41.642;25.370;2023-06-26T06:42:31;6.00;;;4.28;;
9072;SDS011;4572;41.642;25.370;2023-06-26T06:44:56;5.47;;;4.60;;
9072;SDS011;4572;41.642;25.370;2023-06-26T06:47:22;4.47;;;4.07;;
9072;SDS011;4572;41.642;25.370;2023-06-26T06:49:48;7.53;;;4.85;;
9072;SDS011;4572;41.642;25.370;2023-06-26T06:52:13;5.10;;;4.50;;
9072;SDS011;4572;41.642;25.370;2023-06-26T06:54:52;5.03;;;4.10;;
9072;SDS011;4572;41.642;25.370;2023-06-26T06:57:21;5.38;;;4.30;;
9072;SDS011;4572;41.642;25.370;2023-06-26T06:59:47;6.90;;;4.80;;
9072;SDS011;4572;41.642;25.370;2023-06-26T07:02:14;5.55;;;4.53;;
9072;SDS011;4572;41.642;25.370;2023-06-26T07:04:41;4.97;;;3.95;;
9072;SDS011;4572;41.642;25.370;2023-06-26T07:07:06;5.20;;;4.28;;
9072;SDS011;4572;41.642;25.370;2023-06-26T07:09:32;6.32;;;4.80;;
9072;SDS011;4572;41.642;25.370;2023-06-26T07:11:58;5.95;;;4.72;;
9072;SDS011;4572;41.642;25.370;2023-06-26T07:14:23;5.75;;;4.35;;
9072;SDS011;4572;41.642;25.370;2023-06-26T07:16:48;5.78;;;4.65;;
9072;SDS011;4572;41.642;25.370;2023-06-26T07:19:14;6.72;;;4.47;;
9072;SDS011;4572;41.642;25.370;2023-06-26T07:21:39;7.65;;;5.00;;
9072;SDS011;4572;41.642;25.370;2023-06-26T07:24:06;5.03;;;4.30;;
9072;SDS011;4572;41.642;25.370;2023-06-26T07:26:32;4.97;;;4.45;;
9072;SDS011;4572;41.642;25.370;2023-06-26T07:28:57;6.53;;;4.72;;
9072;SDS011;4572;41.642;25.370;2023-06-26T07:31:22;4.50;;;4.10;;
9072;SDS011;4572;41.642;25.370;2023-06-26T07:33:48;5.63;;;4.82;;
9072;SDS011;4572;41.642;25.370;2023-06-26T07:36:14;5.53;;;4.47;;
9072;SDS011;4572;41.642;25.370;2023-06-26T07:38:39;5.32;;;4.22;;
9072;SDS011;4572;41.642;25.370;2023-06-26T07:41:04;6.35;;;4.95;;
9072;SDS011;4572;41.642;25.370;2023-06-26T07:43:30;5.18;;;4.45;;
9072;SDS011;4572;41.642;25.370;2023-06-26T07:45:56;7.07;;;5.13;;
9072;SDS011;4572;41.642;25.370;2023-06-26T07:48:23;4.85;;;4.35;;
9072;SDS011;4572;41.642;25.370;2023-06-26T07:50:49;6.57;;;4.47;;
9072;SDS011;4572;41.642;25.370;2023-06-26T07:53:16;6.07;;;4.93;;
9072;SDS011;4572;41.642;25.370;2023-06-26T07:55:42;5.45;;;4.95;;
9072;SDS011;4572;41.642;25.370;2023-06-26T07:58:08;9.95;;;4.57;;
9072;SDS011;4572;41.642;25.370;2023-06-26T08:00:33;8.43;;;5.07;;
9072;SDS011;4572;41.642;25.370;2023-06-26T08:02:59;7.90;;;5.22;;
9072;SDS011;4572;41.642;25.370;2023-06-26T08:05:24;10.48;;;5.45;;
9072;SDS011;4572;41.642;25.370;2023-06-26T08:07:50;6.63;;;5.50;;
9072;SDS011;4572;41.642;25.370;2023-06-26T08:10:15;7.90;;;5.50;;
9072;SDS011;4572;41.642;25.370;2023-06-26T08:12:41;7.03;;;5.93;;
9072;SDS011;4572;41.642;25.370;2023-06-26T08:15:09;7.30;;;5.45;;
9072;SDS011;4572;41.642;25.370;2023-06-26T08:17:36;6.90;;;5.82;;
9072;SDS011;4572;41.642;25.370;2023-06-26T08:20:02;8.65;;;5.60;;
9072;SDS011;4572;41.642;25.370;2023-06-26T08:22:28;6.68;;;5.60;;
9072;SDS011;4572;41.642;25.370;2023-06-26T08:24:54;10.20;;;6.18;;
9072;SDS011;4572;41.642;25.370;2023-06-26T08:27:20;6.13;;;5.47;;
9072;SDS011;4572;41.642;25.370;2023-06-26T08:29:45;8.55;;;5.40;;
9072;SDS011;4572;41.642;25.370;2023-06-26T08:32:11;6.93;;;5.50;;
9072;SDS011;4572;41.642;25.370;2023-06-26T08:34:36;6.57;;;5.63;;
9072;SDS011;4572;41.642;25.370;2023-06-26T08:37:02;7.65;;;5.68;;
9072;SDS011;4572;41.642;25.370;2023-06-26T08:39:27;7.45;;;4.97;;
9072;SDS011;4572;41.642;25.370;2023-06-26T08:41:53;8.82;;;5.10;;
9072;SDS011;4572;41.642;25.370;2023-06-26T08:44:19;5.18;;;4.68;;
9072;SDS011;4572;41.642;25.370;2023-06-26T08:46:49;5.15;;;4.65;;
9072;SDS011;4572;41.642;25.370;2023-06-26T08:49:17;5.32;;;4.72;;
9072;SDS011;4572;41.642;25.370;2023-06-26T08:51:49;4.75;;;3.90;;
9072;SDS011;4572;41.642;25.370;2023-06-26T08:54:17;4.18;;;3.30;;
9072;SDS011;4572;41.642;25.370;2023-06-26T08:56:47;5.07;;;3.40;;
9072;SDS011;4572;41.642;25.370;2023-06-26T08:59:14;2.92;;;2.63;;
9072;SDS011;4572;41.642;25.370;2023-06-26T09:01:41;3.45;;;2.50;;
9072;SDS011;4572;41.642;25.370;2023-06-26T09:04:06;3.75;;;3.10;;
9072;SDS011;4572;41.642;25.370;2023-06-26T09:06:33;3.45;;;2.80;;
9072;SDS011;4572;41.642;25.370;2023-06-26T09:08:58;3.00;;;2.53;;
9072;SDS011;4572;41.642;25.370;2023-06-26T09:11:24;2.83;;;2.50;;
9072;SDS011;4572;41.642;25.370;2023-06-26T09:13:49;4.43;;;3.45;;
9072;SDS011;4572;41.642;25.370;2023-06-26T09:16:15;3.72;;;2.80;;
9072;SDS011;4572;41.642;25.370;2023-06-26T09:18:41;5.28;;;3.88;;
9072;SDS011;4572;41.642;25.370;2023-06-26T09:21:09;2.90;;;2.60;;
9072;SDS011;4572;41.642;25.370;2023-06-26T09:23:35;3.88;;;2.38;;
9072;SDS011;4572;41.642;25.370;2023-06-26T09:26:04;8.38;;;3.35;;
9072;SDS011;4572;41.642;25.370;2023-06-26T09:28:31;5.15;;;2.95;;
9072;SDS011;4572;41.642;25.370;2023-06-26T09:31:02;3.72;;;2.90;;
9072;SDS011;4572;41.642;25.370;2023-06-26T09:33:34;3.03;;;2.72;;
9072;SDS011;4572;41.642;25.370;2023-06-26T09:36:06;3.22;;;2.42;;
9072;SDS011;4572;41.642;25.370;2023-06-26T09:38:33;4.35;;;2.40;;
9072;SDS011;4572;41.642;25.370;2023-06-26T09:41:00;3.50;;;2.20;;
9072;SDS011;4572;41.642;25.370;2023-06-26T09:43:26;2.53;;;2.20;;
9072;SDS011;4572;41.642;25.370;2023-06-26T09:45:52;2.20;;;2.00;;
9072;SDS011;4572;41.642;25.370;2023-06-26T09:48:19;2.78;;;2.38;;
9072;SDS011;4572;41.642;25.370;2023-06-26T09:50:45;2.50;;;1.65;;
9072;SDS011;4572;41.642;25.370;2023-06-26T09:53:11;2.15;;;1.67;;
9072;SDS011;4572;41.642;25.370;2023-06-26T09:55:40;3.72;;;2.42;;
9072;SDS011;4572;41.642;25.370;2023-06-26T09:58:12;2.25;;;1.90;;
9072;SDS011;4572;41.642;25.370;2023-06-26T10:00:40;1.80;;;1.63;;
9072;SDS011;4572;41.642;25.370;2023-06-26T10:03:09;1.60;;;1.50;;
9072;SDS011;4572;41.642;25.370;2023-06-26T10:05:36;1.83;;;1.70;;
9072;SDS011;4572;41.642;25.370;2023-06-26T10:08:02;1.98;;;1.67;;
9072;SDS011;4572;41.642;25.370;2023-06-26T10:10:29;1.88;;;1.42;;
9072;SDS011;4572;41.642;25.370;2023-06-26T10:12:58;3.33;;;1.70;;
9072;SDS011;4572;41.642;25.370;2023-06-26T10:15:25;1.75;;;1.58;;
9072;SDS011;4572;41.642;25.370;2023-06-26T10:17:53;3.25;;;2.53;;
9072;SDS011;4572;41.642;25.370;2023-06-26T10:20:20;1.83;;;1.50;;
9072;SDS011;4572;41.642;25.370;2023-06-26T10:22:46;2.28;;;1.85;;
9072;SDS011;4572;41.642;25.370;2023-06-26T10:25:14;2.75;;;2.20;;
9072;SDS011;4572;41.642;25.370;2023-06-26T10:27:43;2.65;;;1.80;;
9072;SDS011;4572;41.642;25.370;2023-06-26T10:30:13;1.70;;;1.60;;
9072;SDS011;4572;41.642;25.370;2023-06-26T10:32:42;3.08;;;1.95;;
9072;SDS011;4572;41.642;25.370;2023-06-26T10:35:08;3.03;;;2.72;;
9072;SDS011;4572;41.642;25.370;2023-06-26T10:40:11;2.15;;;1.95;;
9072;SDS011;4572;41.642;25.370;2023-06-26T10:42:38;2.58;;;2.33;;
9072;SDS011;4572;41.642;25.370;2023-06-26T10:45:14;1.60;;;1.50;;
9072;SDS011;4572;41.642;25.370;2023-06-26T10:47:41;1.77;;;1.67;;
9072;SDS011;4572;41.642;25.370;2023-06-26T10:50:23;1.80;;;1.70;;
9072;SDS011;4572;41.642;25.370;2023-06-26T10:55:34;3.58;;;2.10;;
9072;SDS011;4572;41.642;25.370;2023-06-26T10:58:00;1.95;;;1.75;;
9072;SDS011;4572;41.642;25.370;2023-06-26T11:00:27;4.55;;;3.60;;
9072;SDS011;4572;41.642;25.370;2023-06-26T11:02:54;3.75;;;3.25;;
9072;SDS011;4572;41.642;25.370;2023-06-26T11:05:26;2.33;;;1.75;;
9072;SDS011;4572;41.642;25.370;2023-06-26T11:08:02;6.43;;;3.80;;
9072;SDS011;4572;41.642;25.370;2023-06-26T11:10:52;3.30;;;1.75;;
9072;SDS011;4572;41.642;25.370;2023-06-26T11:13:19;3.03;;;2.58;;
9072;SDS011;4572;41.642;25.370;2023-06-26T11:15:45;3.35;;;2.30;;
9072;SDS011;4572;41.642;25.370;2023-06-26T11:18:12;12.80;;;8.70;;
9072;SDS011;4572;41.642;25.370;2023-06-26T11:20:38;2.13;;;1.67;;
9072;SDS011;4572;41.642;25.370;2023-06-26T11:23:07;1.65;;;1.48;;
9072;SDS011;4572;41.642;25.370;2023-06-26T11:25:37;1.73;;;1.48;;
9072;SDS011;4572;41.642;25.370;2023-06-26T11:28:03;1.90;;;1.52;;
9072;SDS011;4572;41.642;25.370;2023-06-26T11:30:30;3.13;;;2.10;;
9072;SDS011;4572;41.642;25.370;2023-06-26T11:33:05;2.10;;;1.90;;
9072;SDS011;4572;41.642;25.370;2023-06-26T11:35:32;2.05;;;1.95;;
9072;SDS011;4572;41.642;25.370;2023-06-26T11:38:01;2.60;;;1.98;;
9072;SDS011;4572;41.642;25.370;2023-06-26T11:40:34;3.65;;;1.80;;
9072;SDS011;4572;41.642;25.370;2023-06-26T11:43:01;4.10;;;2.30;;
9072;SDS011;4572;41.642;25.370;2023-06-26T11:45:29;6.80;;;3.75;;
9072;SDS011;4572;41.642;25.370;2023-06-26T11:47:59;2.63;;;2.28;;
9072;SDS011;4572;41.642;25.370;2023-06-26T11:50:25;6.10;;;3.03;;
9072;SDS011;4572;41.642;25.370;2023-06-26T11:52:53;3.08;;;2.72;;
9072;SDS011;4572;41.642;25.370;2023-06-26T11:55:23;4.03;;;2.40;;
9072;SDS011;4572;41.642;25.370;2023-06-26T11:57:49;3.00;;;1.88;;
9072;SDS011;4572;41.642;25.370;2023-06-26T12:00:16;2.95;;;2.13;;
9072;SDS011;4572;41.642;25.370;2023-06-26T12:02:43;2.28;;;2.00;;
9072;SDS011;4572;41.642;25.370;2023-06-26T12:05:09;3.28;;;2.47;;
9072;SDS011;4572;41.642;25.370;2023-06-26T12:07:35;2.00;;;1.77;;
9072;SDS011;4572;41.642;25.370;2023-06-26T12:10:02;4.57;;;2.30;;
9072;SDS011;4572;41.642;25.370;2023-06-26T12:12:27;2.70;;;2.05;;
9072;SDS011;4572;41.642;25.370;2023-06-26T12:14:53;2.35;;;2.10;;
9072;SDS011;4572;41.642;25.370;2023-06-26T12:17:21;4.07;;;2.80;;
9072;SDS011;4572;41.642;25.370;2023-06-26T12:19:48;3.55;;;2.28;;
9072;SDS011;4572;41.642;25.370;2023-06-26T12:22:14;6.38;;;1.98;;
9072;SDS011;4572;41.642;25.370;2023-06-26T12:24:41;3.17;;;2.00;;
9072;SDS011;4572;41.642;25.370;2023-06-26T12:27:12;3.42;;;2.28;;
9072;SDS011;4572;41.642;25.370;2023-06-26T12:29:39;2.40;;;2.17;;
9072;SDS011;4572;41.642;25.370;2023-06-26T12:32:09;4.28;;;2.75;;
9072;SDS011;4572;41.642;25.370;2023-06-26T12:34:37;2.90;;;2.58;;
9072;SDS011;4572;41.642;25.370;2023-06-26T12:37:04;3.53;;;2.00;;
9072;SDS011;4572;41.642;25.370;2023-06-26T12:39:44;2.15;;;1.95;;
9072;SDS011;4572;41.642;25.370;2023-06-26T12:42:13;2.22;;;2.03;;
9072;SDS011;4572;41.642;25.370;2023-06-26T12:44:39;2.72;;;1.65;;
9072;SDS011;4572;41.642;25.370;2023-06-26T12:47:05;2.75;;;1.88;;
9072;SDS011;4572;41.642;25.370;2023-06-26T12:52:21;3.60;;;1.70;;
9072;SDS011;4572;41.642;25.370;2023-06-26T12:54:52;1.83;;;1.30;;
9072;SDS011;4572;41.642;25.370;2023-06-26T12:57:19;2.70;;;1.77;;
9072;SDS011;4572;41.642;25.370;2023-06-26T12:59:45;4.65;;;2.13;;
9072;SDS011;4572;41.642;25.370;2023-06-26T13:02:10;3.35;;;1.17;;
9072;SDS011;4572;41.642;25.370;2023-06-26T13:04:36;10.73;;;2.33;;
9072;SDS011;4572;41.642;25.370;2023-06-26T13:07:05;4.65;;;2.72;;
9072;SDS011;4572;41.642;25.370;2023-06-26T13:09:34;2.58;;;1.88;;
9072;SDS011;4572;41.642;25.370;2023-06-26T13:12:00;4.55;;;1.90;;
9072;SDS011;4572;41.642;25.370;2023-06-26T13:14:27;0.93;;;0.77;;
9072;SDS011;4572;41.642;25.370;2023-06-26T13:16:53;0.43;;;0.43;;
9072;SDS011;4572;41.642;25.370;2023-06-26T13:19:18;0.40;;;0.40;;
9072;SDS011;4572;41.642;25.370;2023-06-26T13:21:44;5.00;;;0.70;;
9072;SDS011;4572;41.642;25.370;2023-06-26T13:24:10;0.63;;;0.63;;
9072;SDS011;4572;41.642;25.370;2023-06-26T13:26:35;0.50;;;0.50;;
9072;SDS011;4572;41.642;25.370;2023-06-26T13:29:01;0.40;;;0.40;;
9072;SDS011;4572;41.642;25.370;2023-06-26T13:31:27;0.55;;;0.55;;
9072;SDS011;4572;41.642;25.370;2023-06-26T13:33:52;0.50;;;0.50;;
9072;SDS011;4572;41.642;25.370;2023-06-26T13:36:23;0.40;;;0.40;;
9072;SDS011;4572;41.642;25.370;2023-06-26T13:39:00;0.45;;;0.45;;
9072;SDS011;4572;41.642;25.370;2023-06-26T13:41:26;0.38;;;0.38;;
9072;SDS011;4572;41.642;25.370;2023-06-26T13:43:57;0.70;;;0.70;;
9072;SDS011;4572;41.642;25.370;2023-06-26T13:46:23;0.55;;;0.40;;
9072;SDS011;4572;41.642;25.370;2023-06-26T13:48:48;1.30;;;1.10;;
9072;SDS011;4572;41.642;25.370;2023-06-26T13:51:14;1.35;;;0.52;;
9072;SDS011;4572;41.642;25.370;2023-06-26T13:53:39;0.40;;;0.40;;
9072;SDS011;4572;41.642;25.370;2023-06-26T13:56:05;0.75;;;0.75;;
9072;SDS011;4572;41.642;25.370;2023-06-26T13:58:30;0.60;;;0.60;;
9072;SDS011;4572;41.642;25.370;2023-06-26T14:00:57;2.90;;;2.70;;
9072;SDS011;4572;41.642;25.370;2023-06-26T14:03:23;0.50;;;0.50;;
9072;SDS011;4572;41.642;25.370;2023-06-26T14:05:49;0.40;;;0.40;;
9072;SDS011;4572;41.642;25.370;2023-06-26T14:08:14;0.52;;;0.52;;
9072;SDS011;4572;41.642;25.370;2023-06-26T14:10:40;1.88;;;0.70;;
9072;SDS011;4572;41.642;25.370;2023-06-26T14:13:05;0.60;;;0.60;;
9072;SDS011;4572;41.642;25.370;2023-06-26T14:15:32;0.30;;;0.30;;
9072;SDS011;4572;41.642;25.370;2023-06-26T14:17:58;1.08;;;1.02;;
9072;SDS011;4572;41.642;25.370;2023-06-26T14:20:24;0.40;;;0.40;;
9072;SDS011;4572;41.642;25.370;2023-06-26T14:22:50;0.43;;;0.43;;
9072;SDS011;4572;41.642;25.370;2023-06-26T14:25:16;0.50;;;0.50;;
9072;SDS011;4572;41.642;25.370;2023-06-26T14:27:42;0.47;;;0.47;;
9072;SDS011;4572;41.642;25.370;2023-06-26T14:30:07;0.80;;;0.80;;
9072;SDS011;4572;41.642;25.370;2023-06-26T14:32:34;0.82;;;0.55;;
9072;SDS011;4572;41.642;25.370;2023-06-26T14:35:00;0.30;;;0.30;;
9072;SDS011;4572;41.642;25.370;2023-06-26T14:37:26;0.70;;;0.70;;
9072;SDS011;4572;41.642;25.370;2023-06-26T14:39:52;0.50;;;0.50;;
9072;SDS011;4572;41.642;25.370;2023-06-26T14:42:17;1.17;;;0.68;;
9072;SDS011;4572;41.642;25.370;2023-06-26T14:44:43;0.50;;;0.50;;
9072;SDS011;4572;41.642;25.370;2023-06-26T14:53:33;0.40;;;0.40;;
9072;SDS011;4572;41.642;25.370;2023-06-26T14:55:59;1.00;;;0.80;;
9072;SDS011;4572;41.642;25.370;2023-06-26T14:58:24;0.32;;;0.32;;
9072;SDS011;4572;41.642;25.370;2023-06-26T15:00:50;0.52;;;0.52;;
9072;SDS011;4572;41.642;25.370;2023-06-26T15:03:15;0.35;;;0.35;;
9072;SDS011;4572;41.642;25.370;2023-06-26T15:05:40;0.57;;;0.57;;
9072;SDS011;4572;41.642;25.370;2023-06-26T15:08:06;1.13;;;0.80;;
9072;SDS011;4572;41.642;25.370;2023-06-26T15:10:32;1.23;;;0.85;;
9072;SDS011;4572;41.642;25.370;2023-06-26T15:12:57;2.08;;;1.75;;
9072;SDS011;4572;41.642;25.370;2023-06-26T15:15:24;1.55;;;1.45;;
9072;SDS011;4572;41.642;25.370;2023-06-26T15:17:49;0.40;;;0.40;;